EGGW/LTN METAR and TAF weather

Enter ICAO airport designator
Station Type Date Time Source
EGGW METAR 2022/12/04 12:20 UTC NOAA

EGGW 041220Z AUTO 04009KT 7000 OVC018 04/02 Q1017


Station Type Date Time Source
EGGW Decoded METAR 2022/12/04 12:20 UTC NOAA

Luton Airport , United Kingdom (EGGW) 51-52N 000-22W
Dec 04, 2022 - 07:20 AM EST / 2022.12.04 1220 UTC
Wind: from the NE (040 degrees) at 10 MPH (9 KT):0
Visibility: 4 mile(s):0
Sky conditions: overcast
Temperature: 39 F (4 C)
Dew Point: 35 F (2 C)
Relative Humidity: 86%
Pressure (altimeter): 30.03 in. Hg (1017 hPa)
ob: EGGW 041220Z AUTO 04009KT 7000 OVC018 04/02 Q1017
cycle: 12

Station Type Date Time Source
EGGW TAF 2022/12/04 12:09 UTC NOAA

TAF EGGW 041053Z 0412/0512 03009KT 9999 SCT025
TEMPO 0412/0414 8000 -RA
BECMG 0416/0419 BKN012
TEMPO 0418/0512 BKN006 PROB30
TEMPO 0418/0510 7000 -RADZ BKN004

Example: see airport list